Time;durP1;ratioP1;P1;durP2;ratioP2;P2;SDS_P1;SDS_P2;PMS_P1;PMS_P2;Temp;Humidity;BMP_temperature;BMP_pressure;BME280_temperature;BME280_humidity;BME280_pressure;Samples;Min_cycle;Max_cycle;Signal;HPM_P1;HPM_P2
2022/07/13 00:02:24;;;;;;;64.80;52.80;;;26.80;55.10;;;;;;4997681;27;90566;-58
2022/07/13 00:04:49;;;;;;;64.68;52.72;;;26.80;55.20;;;;;;5006081;27;94332;-58
2022/07/13 00:07:15;;;;;;;63.40;52.58;;;26.80;55.20;;;;;;5003165;27;90791;-57
2022/07/13 00:09:41;;;;;;;64.50;52.72;;;26.80;55.20;;;;;;5009650;27;94109;-58
2022/07/13 00:12:07;;;;;;;64.38;52.85;;;26.80;55.20;;;;;;4998218;27;91498;-57
2022/07/13 00:14:34;;;;;;;64.13;52.55;;;26.80;55.20;;;;;;5009881;27;96996;-58
2022/07/13 00:17:00;;;;;;;63.92;52.47;;;26.80;55.20;;;;;;4979686;27;91194;-56
2022/07/13 00:19:25;;;;;;;65.18;52.33;;;26.80;55.30;;;;;;5006966;27;90560;-57
2022/07/13 00:21:52;;;;;;;64.97;52.45;;;26.80;55.30;;;;;;4982148;27;91222;-55
2022/07/13 00:24:18;;;;;;;64.43;52.65;;;26.80;55.30;;;;;;5001895;27;96331;-58
2022/07/13 00:26:44;;;;;;;64.53;52.60;;;26.80;55.40;;;;;;5004975;27;93893;-56
2022/07/13 00:29:09;;;;;;;63.60;52.25;;;26.80;55.30;;;;;;4986428;27;90725;-58
2022/07/13 00:31:35;;;;;;;63.55;52.22;;;26.80;55.50;;;;;;5011498;27;89719;-58
2022/07/13 00:34:01;;;;;;;64.10;52.60;;;26.80;55.40;;;;;;5006135;27;90928;-56
2022/07/13 00:36:26;;;;;;;64.53;52.55;;;26.70;55.40;;;;;;5005141;27;90283;-56
2022/07/13 00:38:52;;;;;;;63.83;51.88;;;26.70;55.30;;;;;;5004025;27;91161;-58
2022/07/13 00:41:17;;;;;;;63.60;52.45;;;26.70;55.40;;;;;;4994793;27;91072;-56
2022/07/13 00:43:43;;;;;;;64.63;52.58;;;26.80;55.50;;;;;;4999867;27;90919;-58
2022/07/13 00:46:09;;;;;;;63.55;52.60;;;26.80;55.40;;;;;;5004409;27;91152;-58
2022/07/13 00:48:37;;;;;;;63.75;52.35;;;26.80;55.50;;;;;;5007753;27;90001;-54
2022/07/13 00:51:02;;;;;;;63.47;52.20;;;26.80;55.50;;;;;;5007470;27;90466;-58
2022/07/13 00:53:29;;;;;;;64.68;52.25;;;26.80;55.60;;;;;;4997519;27;93129;-57
2022/07/13 00:55:56;;;;;;;63.63;52.28;;;26.70;55.50;;;;;;4983470;27;94437;-57
2022/07/13 00:58:22;;;;;;;63.45;52.17;;;26.80;55.60;;;;;;5014763;27;90361;-57
2022/07/13 01:00:48;;;;;;;63.33;52.33;;;26.70;55.50;;;;;;5006513;27;95080;-57
2022/07/13 01:03:15;;;;;;;63.95;52.50;;;26.70;55.60;;;;;;4998555;27;92141;-58
2022/07/13 01:05:41;;;;;;;64.15;52.10;;;26.70;55.50;;;;;;4998956;27;90080;-55
2022/07/13 01:08:07;;;;;;;63.20;52.30;;;26.70;55.60;;;;;;5009655;27;92545;-58
2022/07/13 01:10:33;;;;;;;63.55;52.25;;;26.80;55.60;;;;;;5005314;27;90679;-56
2022/07/13 01:12:59;;;;;;;63.40;52.13;;;26.80;55.60;;;;;;5000819;27;90597;-58
2022/07/13 01:15:25;;;;;;;63.72;52.22;;;26.80;55.60;;;;;;5010154;27;92089;-58
2022/07/13 01:17:52;;;;;;;63.08;52.00;;;26.70;55.50;;;;;;5010682;27;94928;-58
2022/07/13 01:20:18;;;;;;;63.38;52.30;;;26.70;55.60;;;;;;4996344;27;89277;-56
2022/07/13 01:22:50;;;;;;;63.60;52.35;;;26.70;55.60;;;;;;5009833;27;94148;-55
2022/07/13 01:25:16;;;;;;;63.00;52.22;;;26.80;55.60;;;;;;5007472;27;90180;-58
2022/07/13 01:27:43;;;;;;;64.15;52.63;;;26.80;55.60;;;;;;4988523;27;91655;-58
2022/07/13 01:30:09;;;;;;;63.30;51.97;;;26.70;55.60;;;;;;5008996;27;91862;-58
2022/07/13 01:32:48;;;;;;;62.97;52.08;;;26.70;55.70;;;;;;4998745;27;91130;-58
2022/07/13 01:35:15;;;;;;;63.42;52.17;;;26.70;55.70;;;;;;5002695;27;96278;-57
2022/07/13 01:37:42;;;;;;;63.63;52.40;;;26.80;55.80;;;;;;5001388;27;89946;-56
2022/07/13 01:40:08;;;;;;;63.03;52.05;;;26.70;55.70;;;;;;5002671;27;90601;-57
2022/07/13 01:42:52;;;;;;;62.83;51.85;;;26.80;55.70;;;;;;5006761;27;89972;-58
2022/07/13 01:45:20;;;;;;;63.00;52.15;;;26.80;55.80;;;;;;5008330;27;89127;-57
2022/07/13 01:47:50;;;;;;;63.90;52.10;;;26.80;55.70;;;;;;5001966;27;90319;-57
2022/07/13 01:50:18;;;;;;;63.95;52.28;;;26.70;55.70;;;;;;5008078;27;90877;-56
2022/07/13 01:52:44;;;;;;;63.40;52.05;;;26.70;55.80;;;;;;5007788;27;93182;-58
2022/07/13 01:55:12;;;;;;;63.35;52.05;;;26.70;55.70;;;;;;5008558;27;90517;-57
2022/07/13 01:57:38;;;;;;;63.13;52.03;;;26.70;55.80;;;;;;5010306;27;90321;-58
2022/07/13 02:00:11;;;;;;;63.85;52.25;;;26.80;55.80;;;;;;4965930;27;90387;-58
2022/07/13 02:02:36;;;;;;;63.20;52.03;;;26.70;55.80;;;;;;5003426;27;95346;-58
2022/07/13 02:05:02;;;;;;;63.17;52.15;;;26.70;55.80;;;;;;4993391;27;89530;-57
2022/07/13 02:07:28;;;;;;;63.33;52.05;;;26.70;55.80;;;;;;5008137;27;95452;-57
2022/07/13 02:09:54;;;;;;;63.13;52.05;;;26.70;55.80;;;;;;4997691;27;89704;-53
2022/07/13 02:12:20;;;;;;;63.42;52.13;;;26.70;55.90;;;;;;4996957;27;90560;-57
2022/07/13 02:14:46;;;;;;;63.67;52.05;;;26.70;55.80;;;;;;4995618;27;91135;-57
2022/07/13 02:17:12;;;;;;;63.35;52.00;;;26.70;55.90;;;;;;4992751;27;91545;-58
2022/07/13 02:19:37;;;;;;;62.97;51.85;;;26.70;55.80;;;;;;4981940;27;93730;-58
2022/07/13 02:22:03;;;;;;;62.97;51.95;;;26.70;55.90;;;;;;4993632;27;90613;-57
2022/07/13 02:24:29;;;;;;;63.30;51.83;;;26.70;55.90;;;;;;4998768;27;91198;-57
2022/07/13 02:26:54;;;;;;;63.08;52.03;;;26.70;55.90;;;;;;4995688;27;91351;-58
2022/07/13 02:29:20;;;;;;;62.72;51.80;;;26.70;55.90;;;;;;4999456;27;90996;-57
2022/07/13 02:31:45;;;;;;;63.00;51.88;;;26.70;55.90;;;;;;4994370;27;90865;-57
2022/07/13 02:34:11;;;;;;;63.22;51.72;;;26.70;55.90;;;;;;4996766;27;89375;-58
2022/07/13 02:36:37;;;;;;;61.97;51.45;;;26.70;55.90;;;;;;4995570;27;90614;-58
2022/07/13 02:39:03;;;;;;;62.60;51.83;;;26.70;56.00;;;;;;4988711;27;93315;-54
2022/07/13 02:41:29;;;;;;;62.80;51.78;;;26.70;56.00;;;;;;4983020;27;92761;-55
2022/07/13 02:43:54;;;;;;;62.75;52.10;;;26.70;56.00;;;;;;4991639;27;90628;-58
2022/07/13 02:46:20;;;;;;;62.55;51.80;;;26.70;56.10;;;;;;4992511;27;90614;-57
2022/07/13 02:48:46;;;;;;;62.63;52.03;;;26.70;56.00;;;;;;4992857;27;92016;-56
2022/07/13 02:51:12;;;;;;;62.83;51.72;;;26.70;56.10;;;;;;5004645;27;90444;-57
2022/07/13 02:53:38;;;;;;;62.58;51.85;;;26.60;56.10;;;;;;4998172;27;90955;-58
2022/07/13 02:56:06;;;;;;;63.05;52.05;;;26.60;56.10;;;;;;4998199;27;96180;-56
2022/07/13 02:58:32;;;;;;;63.65;51.92;;;26.60;56.10;;;;;;4990576;27;91201;-55
2022/07/13 03:00:58;;;;;;;62.72;52.00;;;26.70;56.10;;;;;;4988536;27;91136;-57
2022/07/13 03:03:24;;;;;;;62.88;52.00;;;26.60;56.10;;;;;;4999251;27;90677;-56
2022/07/13 03:05:50;;;;;;;62.45;51.85;;;26.70;56.20;;;;;;4998999;27;90839;-56
2022/07/13 03:08:15;;;;;;;62.28;51.72;;;26.60;56.10;;;;;;5001848;27;92761;-58
2022/07/13 03:10:41;;;;;;;62.03;51.58;;;26.60;56.00;;;;;;4998035;27;91210;-56
2022/07/13 03:13:06;;;;;;;62.38;51.67;;;26.70;56.20;;;;;;4988378;27;90973;-57
2022/07/13 03:15:32;;;;;;;62.60;51.75;;;26.60;56.10;;;;;;4996700;27;90595;-54
2022/07/13 03:17:58;;;;;;;62.55;51.85;;;26.60;56.10;;;;;;4998479;27;89881;-57
2022/07/13 03:20:24;;;;;;;62.97;51.65;;;26.60;56.20;;;;;;5000692;27;90323;-57
2022/07/13 03:22:49;;;;;;;62.55;51.95;;;26.60;56.20;;;;;;4993576;27;94287;-58
2022/07/13 03:25:15;;;;;;;63.05;51.95;;;26.60;56.10;;;;;;4971611;27;90991;-57
2022/07/13 03:27:41;;;;;;;62.72;51.55;;;26.60;56.10;;;;;;4996383;27;91393;-57
2022/07/13 03:30:07;;;;;;;62.80;51.58;;;26.60;56.20;;;;;;4996270;27;90569;-57
2022/07/13 03:32:33;;;;;;;62.35;51.60;;;26.60;56.10;;;;;;4993657;27;91451;-56
2022/07/13 03:34:59;;;;;;;62.88;51.67;;;26.60;56.20;;;;;;4993945;27;91016;-56
2022/07/13 03:37:24;;;;;;;62.67;51.75;;;26.60;56.20;;;;;;4997831;27;91783;-57
2022/07/13 03:39:50;;;;;;;63.95;51.97;;;26.60;56.20;;;;;;4982213;27;92883;-57
2022/07/13 03:42:16;;;;;;;63.10;51.63;;;26.60;56.20;;;;;;4999887;27;92344;-57
2022/07/13 03:44:41;;;;;;;62.70;51.65;;;26.60;56.20;;;;;;5003960;27;90674;-57
2022/07/13 03:47:07;;;;;;;62.50;51.75;;;26.60;56.30;;;;;;5010075;27;90758;-57
2022/07/13 03:49:32;;;;;;;62.95;51.85;;;26.60;56.20;;;;;;4998854;27;91760;-57
2022/07/13 03:51:58;;;;;;;62.13;51.53;;;26.50;56.20;;;;;;4989109;27;92899;-57
2022/07/13 03:54:24;;;;;;;62.30;51.47;;;26.50;56.20;;;;;;4997644;27;90798;-57
2022/07/13 03:56:49;;;;;;;63.53;51.75;;;26.60;56.20;;;;;;4993642;27;94951;-56
2022/07/13 03:59:15;;;;;;;62.15;51.50;;;26.60;56.30;;;;;;4997794;27;94581;-57
2022/07/13 04:01:42;;;;;;;62.80;51.58;;;26.50;56.10;;;;;;5008529;27;92429;-57
2022/07/13 04:04:08;;;;;;;64.50;51.50;;;26.60;56.30;;;;;;5001095;27;91644;-57
2022/07/13 04:06:33;;;;;;;62.67;51.55;;;26.50;56.20;;;;;;4990196;27;90892;-55
2022/07/13 04:08:59;;;;;;;62.22;51.40;;;26.60;56.30;;;;;;4991657;27;91576;-57
2022/07/13 04:11:28;;;;;;;62.40;51.83;;;26.60;56.30;;;;;;4991306;27;88833;-56
2022/07/13 04:13:54;;;;;;;62.10;51.47;;;26.50;56.20;;;;;;4977124;27;91021;-57
2022/07/13 04:16:20;;;;;;;62.10;51.28;;;26.60;56.90;;;;;;4995154;27;91338;-57
2022/07/13 04:18:45;;;;;;;63.03;51.72;;;26.50;56.20;;;;;;4992729;27;92977;-57
2022/07/13 04:21:13;;;;;;;64.10;51.65;;;26.50;56.30;;;;;;4993725;27;90580;-57
2022/07/13 04:23:40;;;;;;;62.35;51.58;;;26.50;56.30;;;;;;4998978;27;91685;-57
2022/07/13 04:26:06;;;;;;;62.08;51.45;;;26.60;56.40;;;;;;4994634;27;90233;-56
2022/07/13 04:28:32;;;;;;;61.70;51.20;;;26.50;56.30;;;;;;4995082;27;89699;-57
2022/07/13 04:30:57;;;;;;;62.40;51.72;;;26.50;56.30;;;;;;4983848;27;95643;-57
2022/07/13 04:33:23;;;;;;;63.47;51.50;;;26.50;56.30;;;;;;4988509;27;96031;-57
2022/07/13 04:35:49;;;;;;;61.83;51.35;;;26.50;56.30;;;;;;5001519;27;89507;-57
2022/07/13 04:38:15;;;;;;;62.95;51.33;;;26.50;56.30;;;;;;5001417;27;92110;-57
2022/07/13 04:40:40;;;;;;;62.28;51.35;;;26.50;56.30;;;;;;5008756;27;92442;-57
2022/07/13 04:43:07;;;;;;;62.60;51.50;;;26.50;56.30;;;;;;4988541;27;90921;-57
2022/07/13 04:45:33;;;;;;;62.05;51.42;;;26.50;56.30;;;;;;4997093;27;94429;-57
2022/07/13 04:47:59;;;;;;;61.92;51.47;;;26.50;56.30;;;;;;4997248;27;95074;-56
2022/07/13 04:50:25;;;;;;;62.42;51.40;;;26.50;56.30;;;;;;5006568;27;90996;-57
2022/07/13 04:52:50;;;;;;;61.85;51.45;;;26.50;56.40;;;;;;4990920;27;93123;-55
2022/07/13 04:55:16;;;;;;;62.45;51.63;;;26.50;56.40;;;;;;5002817;27;91327;-57
2022/07/13 04:57:42;;;;;;;63.05;51.47;;;26.50;56.40;;;;;;5011401;27;90506;-55
2022/07/13 05:00:09;;;;;;;62.00;51.47;;;26.50;56.40;;;;;;4989186;27;91667;-56
2022/07/13 05:02:36;;;;;;;62.45;51.40;;;26.50;56.40;;;;;;4977005;27;95945;-56
2022/07/13 05:05:02;;;;;;;62.40;51.53;;;26.50;56.40;;;;;;5000605;27;90519;-56
2022/07/13 05:07:29;;;;;;;62.10;51.42;;;26.50;56.50;;;;;;4993134;27;92319;-57
2022/07/13 05:09:55;;;;;;;62.22;51.45;;;26.50;56.50;;;;;;4974033;27;91175;-57
2022/07/13 05:12:21;;;;;;;62.00;51.33;;;26.50;56.50;;;;;;4999574;27;90824;-57
2022/07/13 05:14:46;;;;;;;63.15;51.40;;;26.50;56.50;;;;;;4992690;27;92311;-57
2022/07/13 05:17:12;;;;;;;62.33;51.42;;;26.50;56.60;;;;;;5003189;27;94764;-57
2022/07/13 05:19:38;;;;;;;61.95;51.35;;;26.50;56.50;;;;;;4991221;27;90944;-57
2022/07/13 05:22:04;;;;;;;62.33;51.67;;;26.50;56.60;;;;;;4985680;27;94774;-55
2022/07/13 05:24:29;;;;;;;61.97;51.28;;;26.50;56.50;;;;;;5000796;27;93003;-53
2022/07/13 05:26:55;;;;;;;62.00;51.47;;;26.50;56.60;;;;;;4991881;27;95366;-56
2022/07/13 05:29:21;;;;;;;62.70;51.47;;;26.50;56.60;;;;;;4997991;27;93221;-57
2022/07/13 05:31:46;;;;;;;62.78;51.53;;;26.50;56.60;;;;;;5003234;27;93650;-54
2022/07/13 05:34:12;;;;;;;61.60;51.42;;;26.50;56.50;;;;;;5006420;27;91201;-56
2022/07/13 05:36:37;;;;;;;61.97;51.45;;;26.50;56.60;;;;;;4993493;27;89937;-56
2022/07/13 05:39:04;;;;;;;62.92;51.38;;;26.50;56.70;;;;;;5001770;27;90686;-54
2022/07/13 05:41:29;;;;;;;62.08;51.63;;;26.50;56.60;;;;;;5001886;27;94662;-53
2022/07/13 05:43:55;;;;;;;61.58;51.28;;;26.50;56.70;;;;;;5001750;27;90858;-54
2022/07/13 05:46:21;;;;;;;61.58;51.25;;;26.50;56.70;;;;;;4999603;27;93368;-56
2022/07/13 05:48:46;;;;;;;62.05;51.55;;;26.50;56.70;;;;;;5004001;27;91318;-56
2022/07/13 05:51:12;;;;;;;61.85;51.45;;;26.50;56.70;;;;;;5004951;27;90944;-56
2022/07/13 05:53:38;;;;;;;62.45;51.60;;;26.50;56.60;;;;;;5012997;27;90034;-56
2022/07/13 05:56:04;;;;;;;61.78;51.40;;;26.50;56.70;;;;;;4991187;27;92920;-57
2022/07/13 05:58:31;;;;;;;62.45;51.42;;;26.50;56.70;;;;;;5004361;27;94824;-57
2022/07/13 06:00:56;;;;;;;62.45;51.33;;;26.50;56.70;;;;;;5000041;27;90146;-55
2022/07/13 06:03:22;;;;;;;62.00;51.30;;;26.40;56.60;;;;;;4999999;27;96358;-56
2022/07/13 06:05:48;;;;;;;61.90;51.50;;;26.50;56.70;;;;;;4989964;27;91457;-56
2022/07/13 06:08:13;;;;;;;61.85;51.50;;;26.40;56.60;;;;;;4993062;27;92499;-57
2022/07/13 06:10:39;;;;;;;62.08;51.47;;;26.40;56.60;;;;;;4997657;27;90589;-56
2022/07/13 06:13:04;;;;;;;62.28;51.53;;;26.40;56.60;;;;;;4997282;27;92360;-56
2022/07/13 06:15:30;;;;;;;62.03;51.28;;;26.40;56.80;;;;;;4997057;27;90598;-54
2022/07/13 06:17:56;;;;;;;62.22;51.25;;;26.40;56.70;;;;;;4993882;27;89728;-52
2022/07/13 06:20:22;;;;;;;62.15;51.38;;;26.40;56.80;;;;;;4997945;27;91752;-53
2022/07/13 06:23:09;;;;;;;62.15;51.50;;;26.50;56.80;;;;;;4995674;27;91746;-56
2022/07/13 06:25:33;;;;;;;62.83;51.30;;;26.50;56.80;;;;;;4989026;27;91105;-55
2022/07/13 06:27:59;;;;;;;62.20;51.42;;;26.40;56.80;;;;;;5005572;27;95382;-56
2022/07/13 06:30:24;;;;;;;62.10;51.42;;;26.40;56.70;;;;;;5011060;27;90222;-56
2022/07/13 06:32:50;;;;;;;63.45;51.40;;;26.40;57.10;;;;;;5003527;27;91856;-53
2022/07/13 06:35:16;;;;;;;63.83;51.72;;;26.40;57.00;;;;;;5005602;27;90915;-53
2022/07/13 06:37:41;;;;;;;63.08;51.97;;;26.40;57.00;;;;;;4983340;27;95690;-51
2022/07/13 06:40:08;;;;;;;66.40;52.15;;;26.40;56.80;;;;;;4969175;27;89899;-53
2022/07/13 06:42:33;;;;;;;63.10;51.83;;;26.40;56.80;;;;;;4997822;27;91604;-55
2022/07/13 06:44:59;;;;;;;64.32;52.15;;;26.40;56.80;;;;;;4988248;27;95981;-55
2022/07/13 06:47:24;;;;;;;65.30;52.10;;;26.40;56.80;;;;;;4996625;27;90924;-55
2022/07/13 06:49:50;;;;;;;63.20;52.03;;;26.40;56.80;;;;;;4986235;27;90679;-55
2022/07/13 06:52:16;;;;;;;64.53;52.03;;;26.40;56.80;;;;;;4998141;27;91936;-53
2022/07/13 06:54:41;;;;;;;65.05;52.28;;;26.40;56.90;;;;;;5003230;27;91875;-55
2022/07/13 06:57:07;;;;;;;68.20;52.58;;;26.40;56.80;;;;;;4994900;27;91601;-48
2022/07/13 06:59:33;;;;;;;64.30;52.42;;;26.40;56.90;;;;;;4995254;27;91166;-52
2022/07/13 07:01:58;;;;;;;63.95;52.03;;;26.40;56.90;;;;;;5009684;27;90560;-54
2022/07/13 07:04:24;;;;;;;64.13;52.33;;;26.40;56.90;;;;;;5000345;27;90942;-52
2022/07/13 07:06:50;;;;;;;63.92;52.33;;;26.40;57.00;;;;;;5005384;27;94193;-54
2022/07/13 07:09:15;;;;;;;64.82;52.28;;;26.40;56.90;;;;;;4979118;27;92488;-54
2022/07/13 07:11:43;;;;;;;65.20;52.45;;;26.40;56.90;;;;;;5004549;27;90711;-54
2022/07/13 07:14:09;;;;;;;64.45;52.45;;;26.40;57.00;;;;;;5009508;27;90539;-55
2022/07/13 07:16:36;;;;;;;63.35;52.45;;;26.40;57.00;;;;;;4996865;27;89966;-52
2022/07/13 07:19:03;;;;;;;63.80;52.05;;;26.40;56.90;;;;;;5002043;27;91081;-54
2022/07/13 07:21:28;;;;;;;65.10;52.55;;;26.40;56.90;;;;;;4993233;27;91370;-53
2022/07/13 07:23:54;;;;;;;64.25;52.55;;;26.40;56.90;;;;;;5008551;27;90598;-52
2022/07/13 07:26:20;;;;;;;64.78;52.35;;;26.40;57.00;;;;;;4993632;27;91599;-54
2022/07/13 07:28:46;;;;;;;64.35;52.42;;;26.40;57.10;;;;;;5000093;27;94563;-51
2022/07/13 07:31:11;;;;;;;63.30;52.13;;;26.40;57.30;;;;;;5007064;27;93119;-55
2022/07/13 07:33:37;;;;;;;65.50;52.67;;;26.40;57.50;;;;;;5012176;27;91361;-52
2022/07/13 07:36:04;;;;;;;64.03;52.45;;;26.40;57.70;;;;;;4996070;27;92135;-51
2022/07/13 07:38:29;;;;;;;64.53;52.55;;;26.40;57.60;;;;;;4992562;27;94270;-55
2022/07/13 07:40:56;;;;;;;63.88;52.55;;;26.40;57.70;;;;;;5003498;27;91019;-51
2022/07/13 07:43:21;;;;;;;64.10;52.67;;;26.40;57.50;;;;;;4996396;27;91144;-52
2022/07/13 07:45:47;;;;;;;64.55;52.92;;;26.40;57.60;;;;;;4999457;27;90546;-53
2022/07/13 07:48:13;;;;;;;64.18;52.67;;;26.40;57.50;;;;;;5004660;27;90997;-51
2022/07/13 07:50:38;;;;;;;64.45;52.63;;;26.40;57.70;;;;;;4993846;27;89824;-48
2022/07/13 07:53:04;;;;;;;65.75;52.90;;;26.40;57.40;;;;;;4996367;27;91055;-54
2022/07/13 07:55:29;;;;;;;66.32;52.65;;;26.50;57.40;;;;;;4993133;27;91700;-55
2022/07/13 07:57:55;;;;;;;67.38;52.88;;;26.50;57.30;;;;;;4999480;27;90879;-51
2022/07/13 08:00:21;;;;;;;67.80;53.45;;;26.50;57.40;;;;;;4993291;27;90845;-55
2022/07/13 08:02:47;;;;;;;64.38;52.53;;;26.50;57.30;;;;;;5004091;27;93074;-55
2022/07/13 08:05:14;;;;;;;65.20;52.92;;;26.60;57.00;;;;;;5002679;27;93918;-53
2022/07/13 08:07:44;;;;;;;64.75;52.72;;;26.60;56.80;;;;;;5006626;27;90219;-54
2022/07/13 08:10:11;;;;;;;64.78;52.92;;;26.60;56.70;;;;;;5005526;27;90976;-52
2022/07/13 08:12:36;;;;;;;67.20;53.13;;;26.60;56.60;;;;;;4992393;27;96451;-52
2022/07/13 08:15:03;;;;;;;65.85;53.03;;;26.60;56.50;;;;;;5001624;27;90074;-52
2022/07/13 08:17:28;;;;;;;65.13;53.03;;;26.60;56.60;;;;;;4994101;27;90176;-54
2022/07/13 08:19:54;;;;;;;64.38;52.67;;;26.60;56.40;;;;;;5003063;27;91300;-52
2022/07/13 08:22:19;;;;;;;65.40;52.88;;;26.60;56.40;;;;;;5006717;27;91668;-54
2022/07/13 08:24:45;;;;;;;64.45;52.70;;;26.60;56.40;;;;;;4991080;27;89756;-53
2022/07/13 08:27:11;;;;;;;65.10;52.70;;;26.60;56.40;;;;;;5000957;27;91264;-54
2022/07/13 08:29:36;;;;;;;65.03;52.67;;;26.60;56.50;;;;;;4995864;27;91222;-54
2022/07/13 08:32:02;;;;;;;66.60;52.85;;;26.60;56.40;;;;;;4993544;27;94252;-54
2022/07/13 08:40:24;;;;;;;65.00;52.72;;;26.60;56.20;;;;;;4919960;28;91840;-55
2022/07/13 08:42:50;;;;;;;65.00;52.80;;;26.60;56.20;;;;;;4992795;27;92816;-51
2022/07/13 08:45:16;;;;;;;65.25;52.75;;;26.60;56.30;;;;;;5008904;27;95509;-55
2022/07/13 08:47:42;;;;;;;66.03;52.72;;;26.60;56.40;;;;;;4992117;27;94596;-55
2022/07/13 08:50:09;;;;;;;65.95;52.53;;;26.60;56.40;;;;;;4998478;27;90277;-55
2022/07/13 08:52:37;;;;;;;65.30;52.65;;;26.60;55.90;;;;;;4996687;27;93680;-55
2022/07/13 08:55:05;;;;;;;65.75;52.83;;;26.60;56.90;;;;;;4991111;27;94321;-53
2022/07/13 08:57:35;;;;;;;64.75;52.67;;;26.50;56.90;;;;;;4993307;27;89960;-50
2022/07/13 09:00:07;;;;;;;65.93;52.70;;;26.50;56.80;;;;;;5001987;27;90047;-52
2022/07/13 09:02:33;;;;;;;65.10;52.90;;;26.60;56.70;;;;;;5004781;27;95541;-55
2022/07/13 09:05:04;;;;;;;64.70;52.97;;;26.50;56.60;;;;;;5009652;27;93040;-52
2022/07/13 09:07:30;;;;;;;65.05;52.90;;;26.60;56.70;;;;;;5002444;27;94297;-55
2022/07/13 09:09:56;;;;;;;67.07;53.00;;;26.60;56.80;;;;;;4998551;27;90624;-50
2022/07/13 09:12:26;;;;;;;66.57;53.28;;;26.60;56.70;;;;;;4987455;27;91612;-52
2022/07/13 09:14:54;;;;;;;65.53;52.90;;;26.70;57.00;;;;;;5004512;27;91083;-52
2022/07/13 09:17:31;;;;;;;67.13;53.55;;;26.60;56.80;;;;;;5008826;27;91484;-52
2022/07/13 09:19:58;;;;;;;68.40;53.38;;;26.70;57.00;;;;;;5002231;27;90339;-55
2022/07/13 09:22:24;;;;;;;67.40;53.45;;;26.70;57.00;;;;;;5003854;27;94625;-55
2022/07/13 09:24:53;;;;;;;64.90;53.25;;;26.70;57.10;;;;;;5013840;27;90513;-55
2022/07/13 09:27:20;;;;;;;67.35;53.45;;;26.60;56.90;;;;;;4992711;27;91312;-51
2022/07/13 09:29:46;;;;;;;67.88;53.60;;;26.60;57.00;;;;;;4997855;27;90338;-51
2022/07/13 09:32:13;;;;;;;67.25;53.30;;;26.60;56.90;;;;;;5001888;27;92324;-54
2022/07/13 09:34:53;;;;;;;67.53;53.75;;;26.60;56.80;;;;;;5001507;27;90421;-48
2022/07/13 09:37:30;;;;;;;68.13;53.70;;;26.60;56.90;;;;;;4999385;27;91925;-50
2022/07/13 09:40:17;;;;;;;70.30;53.95;;;26.70;56.70;;;;;;5006371;27;91772;-54
2022/07/13 09:42:44;;;;;;;65.65;53.13;;;26.70;56.40;;;;;;5003820;27;93060;-53
2022/07/13 09:47:59;;;;;;;66.40;53.35;;;26.80;56.40;;;;;;5000621;27;95101;-51
2022/07/13 09:50:39;;;;;;;67.30;53.95;;;26.80;56.30;;;;;;5001062;27;91280;-51
2022/07/13 09:53:27;;;;;;;67.25;53.80;;;26.70;56.50;;;;;;5004726;27;94703;-55
2022/07/13 09:55:54;;;;;;;67.05;53.53;;;26.60;56.60;;;;;;4999281;27;92020;-51
2022/07/13 09:58:29;;;;;;;67.00;53.70;;;26.60;56.60;;;;;;5009718;27;91076;-52
2022/07/13 10:00:57;;;;;;;67.72;53.53;;;26.70;56.90;;;;;;4999087;27;91986;-50
2022/07/13 10:03:23;;;;;;;69.40;54.15;;;26.60;57.20;;;;;;5004722;27;91922;-55
2022/07/13 10:05:51;;;;;;;66.60;53.85;;;26.70;57.10;;;;;;4996223;27;91646;-51
2022/07/13 10:08:18;;;;;;;68.75;54.17;;;26.80;57.00;;;;;;5004994;27;95319;-52
2022/07/13 10:10:45;;;;;;;67.82;53.65;;;26.90;56.80;;;;;;5005470;27;91848;-51
2022/07/13 10:13:13;;;;;;;70.97;53.92;;;26.90;56.80;;;;;;4990274;27;93427;-50
2022/07/13 10:15:39;;;;;;;71.65;54.13;;;27.00;56.80;;;;;;5009198;27;92618;-52
2022/07/13 10:18:09;;;;;;;69.13;54.17;;;27.00;56.80;;;;;;4998025;27;90262;-49
2022/07/13 10:20:37;;;;;;;68.80;53.87;;;27.00;56.70;;;;;;5004059;27;88915;-52
2022/07/13 10:23:04;;;;;;;68.35;53.92;;;27.00;57.30;;;;;;5005699;27;91393;-53
2022/07/13 10:25:43;;;;;;;67.35;53.97;;;27.00;56.60;;;;;;4998471;27;96363;-52
2022/07/13 10:28:11;;;;;;;68.63;53.70;;;27.10;56.60;;;;;;4993118;27;91736;-50
2022/07/13 10:30:37;;;;;;;69.60;54.13;;;27.10;56.60;;;;;;5007041;27;94294;-49
2022/07/13 10:33:24;;;;;;;69.45;54.30;;;27.10;56.60;;;;;;5003738;27;91004;-51
2022/07/13 10:35:52;;;;;;;72.30;54.28;;;27.10;56.60;;;;;;5012852;27;92795;-53
2022/07/13 10:38:27;;;;;;;68.40;54.38;;;27.10;56.50;;;;;;4993641;27;90783;-52
2022/07/13 10:41:21;;;;;;;71.68;54.10;;;27.10;56.50;;;;;;5000734;27;94880;-51
2022/07/13 10:44:05;;;;;;;68.60;54.20;;;27.10;56.50;;;;;;4999835;27;95661;-51
2022/07/13 10:46:49;;;;;;;70.85;54.08;;;27.10;56.40;;;;;;4995549;27;91064;-53
2022/07/13 10:49:41;;;;;;;66.93;53.97;;;27.20;56.50;;;;;;5000317;27;89938;-52
2022/07/13 10:52:21;;;;;;;68.35;53.80;;;27.20;56.50;;;;;;4989007;27;95555;-49
2022/07/13 10:55:03;;;;;;;68.97;54.17;;;27.20;56.50;;;;;;5003727;27;91849;-53
2022/07/13 10:57:29;;;;;;;68.43;53.90;;;27.20;56.40;;;;;;5011880;27;95311;-50
2022/07/13 11:00:01;;;;;;;68.85;54.08;;;27.20;56.40;;;;;;5000751;27;91225;-53
2022/07/13 11:02:47;;;;;;;68.50;53.53;;;27.20;56.40;;;;;;4998545;27;92305;-52
2022/07/13 11:05:13;;;;;;;70.68;53.97;;;27.30;56.40;;;;;;5007000;27;91024;-51
2022/07/13 11:07:41;;;;;;;67.95;53.80;;;27.20;56.30;;;;;;4997739;27;93838;-54
2022/07/13 11:10:30;;;;;;;66.78;53.97;;;27.30;56.40;;;;;;5009512;27;90795;-49
2022/07/13 11:13:04;;;;;;;68.57;53.72;;;27.30;56.40;;;;;;5009724;27;89092;-50
2022/07/13 11:15:55;;;;;;;68.95;54.03;;;27.30;56.40;;;;;;5004579;27;95455;-54
2022/07/13 11:18:21;;;;;;;71.03;53.92;;;27.30;56.40;;;;;;5016079;27;90096;-52
2022/07/13 11:21:01;;;;;;;69.15;54.17;;;27.30;56.40;;;;;;4997059;27;92208;-50
2022/07/13 11:26:38;;;;;;;67.25;53.92;;;27.30;56.40;;;;;;5001188;27;92524;-52
2022/07/13 11:29:17;;;;;;;66.80;53.95;;;27.40;56.40;;;;;;5000521;27;90108;-52
2022/07/13 11:31:44;;;;;;;66.95;54.13;;;27.40;56.40;;;;;;5010301;27;90497;-48
2022/07/13 11:34:09;;;;;;;67.63;54.38;;;27.40;56.40;;;;;;5004574;27;90423;-55
2022/07/13 11:36:35;;;;;;;67.80;53.70;;;27.40;56.40;;;;;;5002314;27;91879;-51
2022/07/13 11:39:01;;;;;;;68.20;53.78;;;27.40;56.40;;;;;;5004421;27;91057;-53
2022/07/13 11:41:27;;;;;;;67.50;53.60;;;27.40;56.40;;;;;;4997255;27;94270;-52
2022/07/13 11:43:53;;;;;;;66.57;53.63;;;27.40;56.40;;;;;;5010409;27;90455;-49
2022/07/13 11:46:27;;;;;;;67.93;53.75;;;27.40;56.40;;;;;;5003743;27;94089;-49
2022/07/13 11:49:04;;;;;;;66.80;53.75;;;27.40;56.40;;;;;;5009518;27;90963;-49
2022/07/13 11:51:30;;;;;;;67.32;53.58;;;27.50;56.40;;;;;;5003201;27;90142;-48
2022/07/13 11:53:55;;;;;;;71.60;53.95;;;27.50;56.30;;;;;;4992511;27;95375;-52
2022/07/13 11:56:22;;;;;;;66.28;53.42;;;27.50;56.20;;;;;;5005260;27;91488;-50
2022/07/13 11:58:48;;;;;;;67.97;53.65;;;27.40;56.40;;;;;;4996841;27;90790;-50
2022/07/13 12:01:17;;;;;;;67.90;53.72;;;27.40;56.50;;;;;;4998242;27;93855;-52
2022/07/13 12:03:51;;;;;;;67.53;53.70;;;27.50;56.40;;;;;;5000398;27;89835;-52
2022/07/13 12:06:18;;;;;;;66.47;53.85;;;27.40;57.10;;;;;;5007505;27;91083;-52
2022/07/13 12:08:45;;;;;;;66.32;53.85;;;27.30;56.70;;;;;;4996790;27;90727;-50
2022/07/13 12:11:16;;;;;;;66.53;53.65;;;27.30;57.00;;;;;;4998976;27;97341;-52
2022/07/13 12:13:43;;;;;;;66.30;53.65;;;27.30;57.20;;;;;;5014689;27;90664;-53
2022/07/13 12:16:13;;;;;;;66.88;53.85;;;27.30;57.20;;;;;;5000759;27;92158;-53
2022/07/13 12:19:06;;;;;;;67.30;53.40;;;27.30;57.10;;;;;;5007486;27;95309;-50
2022/07/13 12:21:32;;;;;;;70.10;53.58;;;27.40;56.60;;;;;;5001473;27;91434;-54
2022/07/13 12:23:58;;;;;;;67.32;53.83;;;27.40;56.50;;;;;;4996656;27;94108;-50
2022/07/13 12:26:26;;;;;;;69.53;53.75;;;27.40;56.50;;;;;;4998333;27;91999;-52
2022/07/13 12:28:52;;;;;;;68.57;53.45;;;27.40;56.20;;;;;;5004948;27;89423;-53
2022/07/13 12:31:21;;;;;;;67.47;53.60;;;27.30;55.70;;;;;;5001116;27;91012;-52
2022/07/13 12:33:49;;;;;;;68.05;53.85;;;27.30;56.00;;;;;;5010643;27;90740;-50
2022/07/13 12:36:18;;;;;;;71.47;53.50;;;27.30;55.10;;;;;;4988631;27;95088;-52
2022/07/13 12:38:57;;;;;;;67.88;53.60;;;27.20;54.40;;;;;;5002319;27;92596;-51
2022/07/13 12:41:34;;;;;;;68.53;53.65;;;27.20;53.90;;;;;;4994652;27;95363;-51
2022/07/13 12:44:05;;;;;;;69.50;53.78;;;27.10;53.20;;;;;;4998908;27;92326;-49